Darstellungsparameter: Aktuell verwendete Einstellungen:
Skalierung der Graphiken ... ?
xyx+y,   Skalierungsfaktor:      Skalierung: Modus: x, Faktor: 1
Darstellungszeitraum ... ?
Vom - - bis: - -   Zeitraum: 12.06.2021 - 12.06.2021
Min/Max/Avg-Anzeige ... ?
Zeige MMA aktuell
Zeige MMA Monat
Zeige MMA alles
Zeige --A aktuell
Zeige --A Monat
Zeige --A alles
Keine MMA-Anzeige
MMA:
Average (ber die Originaldaten)
MMA-Basis: 12.06.2021 - 12.06.2021
Quicknavigation für Darstellung... ?
Tage:      1T, 2T, 3T, 5T -1T -2T -3T -5T +1T +2T +3T +5T
Wochen: 1W, 2W, 3W -1W -2W -3W +1W +2W +3W
Monate: 1M, 3M, 6M -1M -3M -6M +1M +3M +6M
Jahre:    1J, 3J, 5J, 10J -1J -3J -5J -10J +1J +3J +5J +10J
Nutze für die Darstellung ... ?
Originaldaten oder Mittelwerte auf ...
Stundenbasis Tagesbasis Wochenbasis
Monatsbasis Jahresbasis      Datenbasis: Original-Daten
Darstellen als:
Statistik (Auto) Statistik J:M      Darstellung:
Zur Graphik,    zurück zur Übersicht aller Sensoren.
 
Tabellarische Datenbersicht: ?
 
Sensor: Nr:Datum:Temp:Abs-Feuchte:Windchill:Wind:
Aussen-T/F 1 12-06-2021 00:00:00 18.1 C 12.98 g/m*3 18.1 C 0 km/h
2 12-06-2021 00:05:00 18 C 13.06 g/m*3 18 C 0 km/h
3 12-06-2021 00:10:00 17.9 C 12.98 g/m*3 17.9 C 0 km/h
4 12-06-2021 00:15:00 17.8 C 13.05 g/m*3 17.8 C 0 km/h
5 12-06-2021 00:20:00 17.7 C 12.98 g/m*3 17.7 C 0 km/h
6 12-06-2021 00:25:00 17.6 C 12.9 g/m*3 17.6 C 0 km/h
7 12-06-2021 00:30:00 17.5 C 12.82 g/m*3 17.5 C 0 km/h
8 12-06-2021 00:35:00 17.4 C 12.89 g/m*3 17.4 C 0 km/h
9 12-06-2021 00:40:00 17.3 C 12.82 g/m*3 17.3 C 0 km/h
10 12-06-2021 00:45:00 17.3 C 12.82 g/m*3 17.3 C 0 km/h
11 12-06-2021 00:50:00 17.2 C 12.74 g/m*3 17.2 C 0 km/h
12 12-06-2021 00:55:00 17.2 C 12.74 g/m*3 17.2 C 0 km/h
13 12-06-2021 01:00:00 17.1 C 12.66 g/m*3 17.1 C 0 km/h
14 12-06-2021 01:05:00 17.1 C 12.81 g/m*3 17.1 C 0 km/h
15 12-06-2021 01:10:00 17.1 C 12.81 g/m*3 17.1 C 4.8 km/h
16 12-06-2021 01:15:00 17 C 12.73 g/m*3 17 C 0 km/h
17 12-06-2021 01:20:00 16.9 C 12.66 g/m*3 16.9 C 0 km/h
18 12-06-2021 01:25:00 16.9 C 12.51 g/m*3 16.9 C 0 km/h
19 12-06-2021 01:30:00 16.8 C 12.58 g/m*3 16.8 C 0 km/h
20 12-06-2021 01:35:00 16.9 C 12.66 g/m*3 16.9 C 1.6 km/h
21 12-06-2021 01:40:00 16.9 C 12.8 g/m*3 16.9 C 3.2 km/h
22 12-06-2021 01:45:00 16.9 C 12.8 g/m*3 16.9 C 4.8 km/h
23 12-06-2021 01:50:00 16.9 C 12.66 g/m*3 16.9 C 1.6 km/h
24 12-06-2021 01:55:00 16.9 C 12.66 g/m*3 16.9 C 3.2 km/h
25 12-06-2021 02:00:00 16.9 C 12.8 g/m*3 16.9 C 0 km/h
Sensor: Nr:Datum:Temp:Abs-Feuchte:Windchill:Wind:
Aussen-T/F 26 12-06-2021 02:05:00 16.8 C 12.72 g/m*3 16.8 C 0 km/h
27 12-06-2021 02:10:00 16.8 C 12.72 g/m*3 16.8 C 3.2 km/h
28 12-06-2021 02:15:00 16.8 C 12.72 g/m*3 16.8 C 1.6 km/h
29 12-06-2021 02:20:00 16.8 C 12.72 g/m*3 16.8 C 0 km/h
30 12-06-2021 02:25:00 16.8 C 12.72 g/m*3 16.8 C 0 km/h
31 12-06-2021 02:30:00 16.7 C 12.65 g/m*3 16.7 C 1.6 km/h
32 12-06-2021 02:35:00 16.7 C 12.79 g/m*3 16.7 C 1.6 km/h
33 12-06-2021 02:40:00 16.7 C 12.79 g/m*3 16.7 C 0 km/h
34 12-06-2021 02:45:00 16.7 C 12.79 g/m*3 16.7 C 4.8 km/h
35 12-06-2021 02:50:00 16.7 C 12.79 g/m*3 16.7 C 0 km/h
36 12-06-2021 02:55:00 16.6 C 12.71 g/m*3 16.6 C 0 km/h
37 12-06-2021 03:00:00 16.6 C 12.71 g/m*3 16.6 C 0 km/h
38 12-06-2021 03:05:00 16.5 C 12.64 g/m*3 16.5 C 1.6 km/h
39 12-06-2021 03:10:00 16.4 C 12.56 g/m*3 16.4 C 0 km/h
40 12-06-2021 03:15:00 16.4 C 12.56 g/m*3 16.4 C 1.6 km/h
41 12-06-2021 03:20:00 16.3 C 12.49 g/m*3 16.3 C 3.2 km/h
42 12-06-2021 03:25:00 16.2 C 12.41 g/m*3 16.2 C 1.6 km/h
43 12-06-2021 03:30:00 16.1 C 12.34 g/m*3 16.1 C 1.6 km/h
44 12-06-2021 03:35:00 16.1 C 12.47 g/m*3 16.1 C 4.8 km/h
45 12-06-2021 03:40:00 16 C 12.4 g/m*3 16 C 1.6 km/h
46 12-06-2021 03:45:00 15.9 C 12.32 g/m*3 15.9 C 0 km/h
47 12-06-2021 03:50:00 15.9 C 12.32 g/m*3 15.9 C 1.6 km/h
48 12-06-2021 03:55:00 15.9 C 12.46 g/m*3 15.9 C 1.6 km/h
49 12-06-2021 04:00:00 15.9 C 12.46 g/m*3 15.9 C 3.2 km/h
50 12-06-2021 04:05:00 15.9 C 12.46 g/m*3 15.9 C 1.6 km/h
Sensor: Nr:Datum:Temp:Abs-Feuchte:Windchill:Wind:
Aussen-T/F 51 12-06-2021 04:10:00 15.8 C 12.38 g/m*3 15.8 C 1.6 km/h
52 12-06-2021 04:15:00 15.8 C 12.38 g/m*3 15.8 C 3.2 km/h
53 12-06-2021 04:20:00 15.8 C 12.38 g/m*3 15.8 C 0 km/h
54 12-06-2021 04:25:00 15.8 C 12.38 g/m*3 15.8 C 0 km/h
55 12-06-2021 04:30:00 15.7 C 12.31 g/m*3 15.7 C 0 km/h
56 12-06-2021 04:35:00 15.7 C 12.31 g/m*3 15.7 C 0 km/h
57 12-06-2021 04:40:00 15.6 C 12.23 g/m*3 15.6 C 3.2 km/h
58 12-06-2021 04:45:00 15.5 C 12.16 g/m*3 15.5 C 1.6 km/h
59 12-06-2021 04:50:00 15.4 C 12.09 g/m*3 15.4 C 0 km/h
60 12-06-2021 04:55:00 15.3 C 12.01 g/m*3 15.3 C 0 km/h
61 12-06-2021 05:00:00 15.2 C 11.94 g/m*3 15.2 C 0 km/h
62 12-06-2021 05:05:00 15.2 C 11.94 g/m*3 15.2 C 0 km/h
63 12-06-2021 05:10:00 15.1 C 12 g/m*3 15.1 C 3.2 km/h
64 12-06-2021 05:15:00 15.1 C 12 g/m*3 15.1 C 0 km/h
65 12-06-2021 05:20:00 15.1 C 12 g/m*3 15.1 C 0 km/h
66 12-06-2021 05:25:00 15 C 11.93 g/m*3 15 C 1.6 km/h
67 12-06-2021 05:30:00 15 C 11.93 g/m*3 15 C 1.6 km/h
68 12-06-2021 05:35:00 15.1 C 12 g/m*3 15.1 C 1.6 km/h
69 12-06-2021 05:40:00 15.1 C 12.13 g/m*3 15.1 C 4.8 km/h
70 12-06-2021 05:45:00 15.1 C 12.13 g/m*3 15.1 C 1.6 km/h
71 12-06-2021 05:50:00 15.2 C 12.2 g/m*3 15.2 C 0 km/h
72 12-06-2021 05:55:00 15.2 C 12.2 g/m*3 15.2 C 3.2 km/h
73 12-06-2021 06:00:00 15.3 C 12.28 g/m*3 15.3 C 0 km/h
74 12-06-2021 06:05:00 15.3 C 12.28 g/m*3 15.3 C 0 km/h
75 12-06-2021 06:10:00 15.3 C 12.28 g/m*3 15.3 C 0 km/h
Sensor: Nr:Datum:Temp:Abs-Feuchte:Windchill:Wind:
Aussen-T/F 76 12-06-2021 06:15:00 15.3 C 12.28 g/m*3 15.3 C 0 km/h
77 12-06-2021 06:20:00 15.3 C 12.28 g/m*3 15.3 C 0 km/h
78 12-06-2021 06:25:00 15.3 C 12.28 g/m*3 15.3 C 0 km/h
79 12-06-2021 06:30:00 15.3 C 12.28 g/m*3 15.3 C 0 km/h
80 12-06-2021 06:35:00 15.3 C 12.28 g/m*3 15.3 C 6.4 km/h
81 12-06-2021 06:40:00 15.4 C 12.35 g/m*3 15.4 C 6.4 km/h
82 12-06-2021 06:45:00 15.5 C 12.43 g/m*3 15.5 C 1.6 km/h
83 12-06-2021 06:50:00 15.6 C 12.5 g/m*3 15.6 C 6.4 km/h
84 12-06-2021 06:55:00 15.7 C 12.58 g/m*3 15.7 C 4.8 km/h
85 12-06-2021 07:00:00 15.7 C 12.44 g/m*3 15.7 C 3.2 km/h
86 12-06-2021 07:05:00 15.7 C 12.44 g/m*3 15.7 C 4.8 km/h
87 12-06-2021 07:10:00 15.8 C 12.52 g/m*3 15.8 C 1.6 km/h
88 12-06-2021 07:15:00 15.8 C 12.52 g/m*3 15.8 C 3.2 km/h
89 12-06-2021 07:20:00 15.9 C 12.59 g/m*3 15.9 C 1.6 km/h
90 12-06-2021 07:25:00 15.9 C 12.59 g/m*3 15.9 C 3.2 km/h
91 12-06-2021 07:30:00 16.1 C 12.75 g/m*3 16.1 C 6.4 km/h
92 12-06-2021 07:35:00 16.2 C 12.82 g/m*3 16.2 C 8.1 km/h
93 12-06-2021 07:40:00 16.3 C 12.76 g/m*3 16.3 C 6.4 km/h
94 12-06-2021 07:45:00 16.3 C 12.76 g/m*3 16.3 C 1.6 km/h
95 12-06-2021 07:50:00 16.4 C 12.84 g/m*3 16.4 C 6.4 km/h
96 12-06-2021 07:55:00 16.6 C 13 g/m*3 16.6 C 8.1 km/h
97 12-06-2021 08:00:00 16.7 C 13.07 g/m*3 16.7 C 8.1 km/h
98 12-06-2021 08:05:00 16.8 C 13.15 g/m*3 16.8 C 4.8 km/h
99 12-06-2021 08:10:00 16.9 C 13.09 g/m*3 16.9 C 6.4 km/h
100 12-06-2021 08:15:00 17.2 C 13.33 g/m*3 17.2 C 6.4 km/h
Sensor: Nr:Datum:Temp:Abs-Feuchte:Windchill:Wind:
Aussen-T/F 101 12-06-2021 08:20:00 17.3 C 13.26 g/m*3 17.3 C 4.8 km/h
102 12-06-2021 08:25:00 17.5 C 13.42 g/m*3 17.5 C 3.2 km/h
103 12-06-2021 08:30:00 17.7 C 13.58 g/m*3 17.7 C 6.4 km/h
104 12-06-2021 08:35:00 17.9 C 13.59 g/m*3 17.9 C 4.8 km/h
105 12-06-2021 08:40:00 18.2 C 13.68 g/m*3 18.2 C 6.4 km/h
106 12-06-2021 08:45:00 18.3 C 13.76 g/m*3 18.3 C 4.8 km/h
107 12-06-2021 08:50:00 18.4 C 13.84 g/m*3 18.4 C 3.2 km/h
108 12-06-2021 08:55:00 18.5 C 13.92 g/m*3 18.5 C 1.6 km/h
109 12-06-2021 09:00:00 18.7 C 14.09 g/m*3 18.7 C 0 km/h
110 12-06-2021 09:05:00 18.8 C 14.01 g/m*3 18.8 C 3.2 km/h
111 12-06-2021 09:10:00 19.1 C 14.26 g/m*3 19.1 C 6.4 km/h
112 12-06-2021 09:15:00 19.4 C 14.35 g/m*3 19.4 C 6.4 km/h
113 12-06-2021 09:20:00 19.7 C 14.43 g/m*3 19.7 C 6.4 km/h
114 12-06-2021 09:25:00 19.9 C 14.43 g/m*3 19.9 C 8.1 km/h
115 12-06-2021 09:30:00 20.1 C 14.6 g/m*3 20.1 C 6.4 km/h
116 12-06-2021 09:35:00 20.2 C 14.69 g/m*3 20.2 C 0 km/h
117 12-06-2021 09:40:00 20.3 C 14.6 g/m*3 20.3 C 6.4 km/h
118 12-06-2021 09:45:00 20.4 C 14.51 g/m*3 20.4 C 4.8 km/h
119 12-06-2021 09:50:00 20.4 C 14.51 g/m*3 20.4 C 1.6 km/h
120 12-06-2021 09:55:00 20.5 C 14.59 g/m*3 20.5 C 0 km/h
121 12-06-2021 10:00:00 20.6 C 14.68 g/m*3 20.6 C 0 km/h
122 12-06-2021 10:05:00 20.8 C 14.85 g/m*3 20.8 C 6.4 km/h
123 12-06-2021 10:10:00 21.1 C 14.92 g/m*3 21.1 C 6.4 km/h
124 12-06-2021 10:15:00 21.2 C 14.83 g/m*3 21.2 C 8.1 km/h
125 12-06-2021 10:20:00 21.3 C 14.73 g/m*3 21.3 C 3.2 km/h
Sensor: Nr:Datum:Temp:Abs-Feuchte:Windchill:Wind:
Aussen-T/F 126 12-06-2021 10:25:00 21.3 C 14.73 g/m*3 21.3 C 4.8 km/h
127 12-06-2021 10:30:00 21.4 C 15 g/m*3 21.4 C 1.6 km/h
128 12-06-2021 10:35:00 21.4 C 14.81 g/m*3 21.4 C 3.2 km/h
129 12-06-2021 10:40:00 21.5 C 14.9 g/m*3 21.5 C 1.6 km/h
130 12-06-2021 10:45:00 21.6 C 14.79 g/m*3 21.6 C 4.8 km/h
131 12-06-2021 10:50:00 21.7 C 14.88 g/m*3 21.7 C 3.2 km/h
132 12-06-2021 10:55:00 21.6 C 14.79 g/m*3 21.6 C 3.2 km/h
133 12-06-2021 11:00:00 21.7 C 14.88 g/m*3 21.7 C 3.2 km/h
134 12-06-2021 11:05:00 21.8 C 14.39 g/m*3 21.8 C 1.6 km/h
135 12-06-2021 11:10:00 21.9 C 14.67 g/m*3 21.9 C 0 km/h
136 12-06-2021 11:15:00 22.1 C 14.25 g/m*3 22.1 C 11.3 km/h
137 12-06-2021 11:20:00 22.2 C 14.33 g/m*3 22.2 C 6.4 km/h
138 12-06-2021 11:25:00 22.4 C 14.1 g/m*3 22.4 C 8.1 km/h
139 12-06-2021 11:30:00 22.4 C 13.9 g/m*3 22.4 C 4.8 km/h
140 12-06-2021 11:35:00 22.5 C 13.78 g/m*3 22.5 C 8.1 km/h
141 12-06-2021 11:40:00 22.7 C 13.33 g/m*3 22.7 C 14.5 km/h
142 12-06-2021 11:45:00 22.7 C 13.13 g/m*3 22.7 C 11.3 km/h
143 12-06-2021 11:50:00 22.7 C 13.33 g/m*3 22.7 C 9.7 km/h
144 12-06-2021 11:55:00 22.8 C 13.21 g/m*3 22.8 C 12.9 km/h
145 12-06-2021 12:00:00 22.8 C 13 g/m*3 22.8 C 12.9 km/h
146 12-06-2021 12:05:00 22.9 C 13.28 g/m*3 22.9 C 9.7 km/h
147 12-06-2021 12:10:00 23 C 13.15 g/m*3 23 C 16.1 km/h
148 12-06-2021 12:15:00 23.1 C 12.82 g/m*3 23.1 C 12.9 km/h
149 12-06-2021 12:20:00 23.3 C 13.38 g/m*3 23.3 C 8.1 km/h
150 12-06-2021 12:25:00 23.4 C 13.04 g/m*3 23.4 C 14.5 km/h
Sensor: Nr:Datum:Temp:Abs-Feuchte:Windchill:Wind:
Aussen-T/F 151 12-06-2021 12:30:00 23.6 C 13.19 g/m*3 23.6 C 11.3 km/h
152 12-06-2021 12:35:00 23.6 C 13.19 g/m*3 23.6 C 16.1 km/h
153 12-06-2021 12:40:00 23.7 C 13.05 g/m*3 23.7 C 16.1 km/h
154 12-06-2021 12:45:00 23.6 C 13.19 g/m*3 23.6 C 12.9 km/h
155 12-06-2021 12:50:00 23.3 C 13.59 g/m*3 23.3 C 14.5 km/h
156 12-06-2021 12:55:00 22.8 C 13.82 g/m*3 22.8 C 16.1 km/h
157 12-06-2021 13:00:00 22.4 C 14.1 g/m*3 22.4 C 20.9 km/h
158 12-06-2021 13:05:00 22 C 13.97 g/m*3 22 C 16.1 km/h
159 12-06-2021 13:10:00 21.8 C 14.01 g/m*3 21.8 C 12.9 km/h
160 12-06-2021 13:15:00 21.7 C 14.12 g/m*3 21.7 C 12.9 km/h
161 12-06-2021 13:20:00 21.7 C 13.93 g/m*3 21.7 C 14.5 km/h
162 12-06-2021 13:25:00 21.7 C 13.73 g/m*3 21.7 C 12.9 km/h
163 12-06-2021 13:30:00 21.7 C 13.93 g/m*3 21.7 C 12.9 km/h
164 12-06-2021 13:35:00 21.6 C 13.66 g/m*3 21.6 C 16.1 km/h
165 12-06-2021 13:40:00 21.5 C 13.77 g/m*3 21.5 C 16.1 km/h
166 12-06-2021 13:45:00 21.4 C 13.69 g/m*3 21.4 C 9.7 km/h
167 12-06-2021 13:50:00 21.3 C 13.61 g/m*3 21.3 C 12.9 km/h
168 12-06-2021 13:55:00 21.3 C 13.79 g/m*3 21.3 C 12.9 km/h
169 12-06-2021 14:00:00 21.2 C 13.71 g/m*3 21.2 C 12.9 km/h
170 12-06-2021 14:05:00 21.1 C 13.63 g/m*3 21.1 C 14.5 km/h
171 12-06-2021 14:10:00 21.1 C 13.82 g/m*3 21.1 C 12.9 km/h
172 12-06-2021 14:15:00 21.1 C 13.82 g/m*3 21.1 C 8.1 km/h
173 12-06-2021 14:20:00 21.1 C 13.63 g/m*3 21.1 C 14.5 km/h
174 12-06-2021 14:25:00 21 C 13.56 g/m*3 21 C 14.5 km/h
175 12-06-2021 14:30:00 20.8 C 13.58 g/m*3 20.8 C 11.3 km/h
Sensor: Nr:Datum:Temp:Abs-Feuchte:Windchill:Wind:
Aussen-T/F 176 12-06-2021 14:35:00 20.7 C 13.5 g/m*3 20.7 C 14.5 km/h
177 12-06-2021 14:40:00 20.7 C 13.5 g/m*3 20.7 C 8.1 km/h
178 12-06-2021 14:45:00 20.7 C 13.5 g/m*3 20.7 C 16.1 km/h
179 12-06-2021 14:50:00 20.8 C 13.58 g/m*3 20.8 C 11.3 km/h
180 12-06-2021 14:55:00 20.8 C 13.58 g/m*3 20.8 C 12.9 km/h
181 12-06-2021 15:00:00 20.9 C 13.66 g/m*3 20.9 C 11.3 km/h
182 12-06-2021 15:05:00 20.8 C 13.58 g/m*3 20.8 C 11.3 km/h
183 12-06-2021 15:10:00 20.8 C 13.58 g/m*3 20.8 C 11.3 km/h
184 12-06-2021 15:15:00 20.8 C 13.58 g/m*3 20.8 C 14.5 km/h
185 12-06-2021 15:20:00 20.9 C 13.66 g/m*3 20.9 C 14.5 km/h
186 12-06-2021 15:25:00 21.1 C 12.9 g/m*3 21.1 C 19.3 km/h
187 12-06-2021 15:30:00 21.2 C 12.97 g/m*3 21.2 C 12.9 km/h
188 12-06-2021 15:35:00 21.3 C 12.86 g/m*3 21.3 C 19.3 km/h
189 12-06-2021 15:40:00 21.6 C 12.71 g/m*3 21.6 C 24.1 km/h
190 12-06-2021 15:45:00 21.7 C 12.97 g/m*3 21.7 C 24.1 km/h
191 12-06-2021 15:50:00 21.7 C 12.78 g/m*3 21.7 C 14.5 km/h
192 12-06-2021 15:55:00 21.8 C 13.24 g/m*3 21.8 C 17.7 km/h
193 12-06-2021 16:00:00 22.1 C 12.88 g/m*3 22.1 C 16.1 km/h
194 12-06-2021 16:05:00 22.5 C 13.18 g/m*3 22.5 C 20.9 km/h
195 12-06-2021 16:10:00 22.9 C 13.08 g/m*3 22.9 C 14.5 km/h
196 12-06-2021 16:15:00 23.2 C 13.1 g/m*3 23.2 C 16.1 km/h
197 12-06-2021 16:20:00 23.4 C 13.25 g/m*3 23.4 C 17.7 km/h
198 12-06-2021 16:25:00 23.7 C 13.48 g/m*3 23.7 C 16.1 km/h
199 12-06-2021 16:30:00 24 C 12.84 g/m*3 24 C 16.1 km/h
200 12-06-2021 16:35:00 24.2 C 12.98 g/m*3 24.2 C 19.3 km/h
Sensor: Nr:Datum:Temp:Abs-Feuchte:Windchill:Wind:
Aussen-T/F 201 12-06-2021 16:40:00 24.3 C 12.83 g/m*3 24.3 C 12.9 km/h
202 12-06-2021 16:45:00 24.6 C 12.38 g/m*3 24.6 C 12.9 km/h
203 12-06-2021 16:50:00 24.7 C 12 g/m*3 24.7 C 22.5 km/h
204 12-06-2021 16:55:00 24.5 C 11.86 g/m*3 24.5 C 17.7 km/h
205 12-06-2021 17:00:00 24.1 C 11.82 g/m*3 24.1 C 16.1 km/h
206 12-06-2021 17:05:00 24.1 C 12.25 g/m*3 24.1 C 14.5 km/h
207 12-06-2021 17:10:00 23.9 C 11.47 g/m*3 23.9 C 11.3 km/h
208 12-06-2021 17:15:00 23.7 C 11.76 g/m*3 23.7 C 9.7 km/h
209 12-06-2021 17:20:00 23.3 C 11.92 g/m*3 23.3 C 11.3 km/h
210 12-06-2021 17:25:00 22.9 C 11.65 g/m*3 22.9 C 12.9 km/h
211 12-06-2021 17:30:00 22.7 C 11.92 g/m*3 22.7 C 14.5 km/h
212 12-06-2021 17:35:00 22.5 C 12.18 g/m*3 22.5 C 12.9 km/h
213 12-06-2021 17:40:00 22.4 C 12.11 g/m*3 22.4 C 4.8 km/h
214 12-06-2021 17:45:00 22.4 C 12.31 g/m*3 22.4 C 6.4 km/h
215 12-06-2021 17:50:00 22.4 C 12.11 g/m*3 22.4 C 14.5 km/h
216 12-06-2021 17:55:00 22.3 C 12.05 g/m*3 22.3 C 16.1 km/h
217 12-06-2021 18:00:00 22.4 C 12.11 g/m*3 22.4 C 14.5 km/h
218 12-06-2021 18:05:00 22.8 C 12.6 g/m*3 22.8 C 12.9 km/h
219 12-06-2021 18:10:00 23.2 C 12.68 g/m*3 23.2 C 12.9 km/h
220 12-06-2021 18:15:00 23.5 C 12.9 g/m*3 23.5 C 8.1 km/h
221 12-06-2021 18:20:00 23.7 C 12.83 g/m*3 23.7 C 14.5 km/h
222 12-06-2021 18:25:00 23.7 C 12.62 g/m*3 23.7 C 11.3 km/h
223 12-06-2021 18:30:00 23.2 C 12.68 g/m*3 23.2 C 16.1 km/h
224 12-06-2021 18:35:00 22.8 C 12.8 g/m*3 22.8 C 12.9 km/h
225 12-06-2021 18:40:00 22.7 C 12.93 g/m*3 22.7 C 12.9 km/h
Sensor: Nr:Datum:Temp:Abs-Feuchte:Windchill:Wind:
Aussen-T/F 226 12-06-2021 18:45:00 22.9 C 12.88 g/m*3 22.9 C 9.7 km/h
227 12-06-2021 18:50:00 23.1 C 12.82 g/m*3 23.1 C 9.7 km/h
228 12-06-2021 18:55:00 23.2 C 12.68 g/m*3 23.2 C 16.1 km/h
229 12-06-2021 19:00:00 23.1 C 12.82 g/m*3 23.1 C 12.9 km/h
230 12-06-2021 19:05:00 22.9 C 12.26 g/m*3 22.9 C 16.1 km/h
231 12-06-2021 19:10:00 22.8 C 12.4 g/m*3 22.8 C 8.1 km/h
232 12-06-2021 19:15:00 22.5 C 12.18 g/m*3 22.5 C 12.9 km/h
233 12-06-2021 19:20:00 22.5 C 11.98 g/m*3 22.5 C 16.1 km/h
234 12-06-2021 19:25:00 22.6 C 11.65 g/m*3 22.6 C 16.1 km/h
235 12-06-2021 19:30:00 22.6 C 11.85 g/m*3 22.6 C 9.7 km/h
236 12-06-2021 19:35:00 22.6 C 11.45 g/m*3 22.6 C 8.1 km/h
237 12-06-2021 19:40:00 22.6 C 11.45 g/m*3 22.6 C 14.5 km/h
238 12-06-2021 19:45:00 22.4 C 11.32 g/m*3 22.4 C 16.1 km/h
239 12-06-2021 19:50:00 22.4 C 11.32 g/m*3 22.4 C 14.5 km/h
240 12-06-2021 19:55:00 22.3 C 11.26 g/m*3 22.3 C 8.1 km/h
241 12-06-2021 20:00:00 22.3 C 11.26 g/m*3 22.3 C 11.3 km/h
242 12-06-2021 20:05:00 22.3 C 11.06 g/m*3 22.3 C 16.1 km/h
243 12-06-2021 20:10:00 22.2 C 10.99 g/m*3 22.2 C 12.9 km/h
244 12-06-2021 20:15:00 22.2 C 10.99 g/m*3 22.2 C 12.9 km/h
245 12-06-2021 20:20:00 22.1 C 10.93 g/m*3 22.1 C 12.9 km/h
246 12-06-2021 20:25:00 22 C 11.06 g/m*3 22 C 11.3 km/h
247 12-06-2021 20:30:00 21.9 C 10.81 g/m*3 21.9 C 9.7 km/h
248 12-06-2021 20:35:00 21.7 C 10.68 g/m*3 21.7 C 12.9 km/h
249 12-06-2021 20:40:00 21.5 C 10.56 g/m*3 21.5 C 11.3 km/h
250 12-06-2021 20:45:00 21.4 C 10.69 g/m*3 21.4 C 8.1 km/h
Sensor: Nr:Datum:Temp:Abs-Feuchte:Windchill:Wind:
Aussen-T/F 251 12-06-2021 20:50:00 21.3 C 10.81 g/m*3 21.3 C 8.1 km/h
252 12-06-2021 20:55:00 21.1 C 10.5 g/m*3 21.1 C 9.7 km/h
253 12-06-2021 21:00:00 20.9 C 10.38 g/m*3 20.9 C 9.7 km/h
254 12-06-2021 21:05:00 20.7 C 10.44 g/m*3 20.7 C 9.7 km/h
255 12-06-2021 21:10:00 20.6 C 10.56 g/m*3 20.6 C 8.1 km/h
256 12-06-2021 21:15:00 20.4 C 10.26 g/m*3 20.4 C 8.1 km/h
257 12-06-2021 21:20:00 20.2 C 10.32 g/m*3 20.2 C 3.2 km/h
258 12-06-2021 21:25:00 20.1 C 10.78 g/m*3 20.1 C 3.2 km/h
259 12-06-2021 21:30:00 19.9 C 10.82 g/m*3 19.9 C 0 km/h
260 12-06-2021 21:35:00 19.7 C 10.87 g/m*3 19.7 C 0 km/h
261 12-06-2021 21:40:00 19.3 C 10.95 g/m*3 19.3 C 0 km/h
262 12-06-2021 21:45:00 18.9 C 10.69 g/m*3 18.9 C 0 km/h
263 12-06-2021 21:50:00 18.6 C 10.66 g/m*3 18.6 C 3.2 km/h
264 12-06-2021 21:55:00 18.3 C 10.48 g/m*3 18.3 C 4.8 km/h
265 12-06-2021 22:00:00 18.2 C 10.57 g/m*3 18.2 C 3.2 km/h
266 12-06-2021 22:05:00 17.9 C 10.23 g/m*3 17.9 C 1.6 km/h
267 12-06-2021 22:10:00 17.8 C 10.62 g/m*3 17.8 C 1.6 km/h
268 12-06-2021 22:15:00 17.7 C 10.56 g/m*3 17.7 C 1.6 km/h
269 12-06-2021 22:20:00 17.6 C 10.5 g/m*3 17.6 C 4.8 km/h
270 12-06-2021 22:25:00 17.4 C 10.37 g/m*3 17.4 C 1.6 km/h
271 12-06-2021 22:30:00 17.3 C 10.46 g/m*3 17.3 C 0 km/h
272 12-06-2021 22:35:00 17.2 C 10.4 g/m*3 17.2 C 4.8 km/h
273 12-06-2021 22:40:00 17.1 C 10.34 g/m*3 17.1 C 3.2 km/h
274 12-06-2021 22:45:00 17 C 10.42 g/m*3 17 C 1.6 km/h
275 12-06-2021 22:50:00 16.9 C 10.64 g/m*3 16.9 C 0 km/h
Sensor: Nr:Datum:Temp:Abs-Feuchte:Windchill:Wind:
Aussen-T/F 276 12-06-2021 22:55:00 16.7 C 10.52 g/m*3 16.7 C 0 km/h
277 12-06-2021 23:00:00 16.6 C 10.59 g/m*3 16.6 C 3.2 km/h
278 12-06-2021 23:05:00 16.4 C 10.47 g/m*3 16.4 C 0 km/h
279 12-06-2021 23:10:00 16.3 C 10.54 g/m*3 16.3 C 0 km/h
280 12-06-2021 23:15:00 16.2 C 10.48 g/m*3 16.2 C 3.2 km/h
281 12-06-2021 23:20:00 16.1 C 10.42 g/m*3 16.1 C 0 km/h
282 12-06-2021 23:25:00 15.9 C 10.29 g/m*3 15.9 C 0 km/h
283 12-06-2021 23:30:00 15.8 C 10.23 g/m*3 15.8 C 1.6 km/h
284 12-06-2021 23:35:00 15.8 C 10.23 g/m*3 15.8 C 1.6 km/h
285 12-06-2021 23:40:00 15.9 C 10.02 g/m*3 15.9 C 8.1 km/h
286 12-06-2021 23:45:00 16.1 C 10.14 g/m*3 16.1 C 4.8 km/h
287 12-06-2021 23:50:00 16.1 C 10.14 g/m*3 16.1 C 1.6 km/h
288 12-06-2021 23:55:00 16.1 C 10.28 g/m*3 16.1 C 0 km/h

Legende:
   Min
   Max


Maximal/Minimal-Werte vom 12.06.2021 - 12.06.2021

Sensor Min Max Avg
Temp
(Aussen-T/F)
15 °C
12-06-2021  05:25:00
24.7 °C
12-06-2021  16:50:00
19.39 °C
Abs-Feuchte
(Aussen-T/F)
10.02 g/m*3
12-06-2021  23:40:00
15 g/m*3
12-06-2021  10:30:00
12.55 g/m*3
Windchill
(Aussen-T/F)
15 C
12-06-2021  05:25:00
24.7 C
12-06-2021  16:50:00
19.32 C

Die Daten stammen von einer Davis Vantage Pro 2 Wetter-Station und werden unter Linux mit der Software wview2wettercgi und aufbereitet. Alle Angaben erfolgen ohne Gewähr für ihre Vollständigkeit oder Richtigkeit.
Kontakt: Rainer Krienke krienke@uni-koblenz.de . Meine Webseiten an der Uni Koblenz oder privat.
Version: $Revision: 0.78 $